Airfield :
LOGIN :

Register | Disclaimer

   EN    FR    IT 

 










Legend :    VFR   Marginal VFR   IFR   Intensive IFR   Very Intensive IFR
Visi :
Ceiling :
>= 8 km
>= 3000ft
5 to 8 km
1000 to 3000 ft
1500m to 5 km
500 to 1000 ft
800 to 1500m
200 to 500 ft
< 800m
< 200 ft
Symbols :   Thunderstorms  Fog  Heavy snow  Heavy precipitations  Wind > 20 kt
SIGMETs :     Misc.  Thunderstorms  Icing  Turbulence  Mountain Waves  Volcanic Ashes






- Airport Elevation : 495 ft
- IATA code : BUD


LHBP - Budapest Ferihegy

CURRENT METAR :
  • 011349Z 13010KT 100V180 9999 FEW050CB SCT055 29/22 Q1004 RETSRA NOSIG

EXPIRED METARs :
  • 011330Z 14005KT 120V190 9999 -TSRA SCT045CB SCT052 BKN080 28/22 Q1005 BECMG CAVOK
  • 011316Z VRB03KT 9999 -TSRA FEW048CB SCT055 BKN080 28/22 Q1005 TEMPO 5000 TSRA
  • 011300Z VRB02KT 9999 -SHRA FEW050CB 27/23 Q1005 RETSRA TEMPO -TSRA
  • 011235Z 13007KT 9999 -TSRA FEW052CB BKN080 29/20 Q1005 BECMG 20010KT
  • 011230Z 13008KT 9999 FEW052TCU BKN080 29/20 Q1005 BECMG 20010KT TEMPO -TSRA FEW050CB BKN100
  • 011200Z 13011KT CAVOK 30/20 Q1006 NOSIG
  • 011130Z 13013KT CAVOK 29/20 Q1006 NOSIG

TAF TAF LHBP
Valid from the 01 at 12:00 until the 02 at 12:00 UTC


011115Z 0112/0212 14014KT CAVOK
BECMG 0112/0114 23012KT
TEMPO 0113/0118 VRB25G47KT 2000 +TSRAGR SQ BKN040CB BKN070
BECMG 0118/0120 31014KT
TEMPO 0121/0204 28006KT



MET'MAP, your aeronautical weather chart ! - Copyright ORBIFLY December 2007 - Disclaimer

ORBIFLY MET'MAP TEAM :

Programming & Development : Alexandra Zaïnal
Concept & original design : Baudouin d'Aumeries
Assistance for programming : Marc-Olivier Méhu
Technical & hardware support : Manuel Goepfert

Contact : metmap@orbifly.com




SOURCES & CREDITS :

   NOAA